createdAt,value
2017-11-07T00:02:25.054Z,4.89
2017-11-07T00:04:53.366Z,4.87
2017-11-07T00:07:21.688Z,4.89
2017-11-07T00:09:50.003Z,4.89
2017-11-07T00:12:18.350Z,4.91
2017-11-07T00:14:46.671Z,4.96
2017-11-07T00:17:15.797Z,4.77
2017-11-07T00:19:44.110Z,4.60
2017-11-07T00:22:12.442Z,4.72
2017-11-07T00:24:40.783Z,4.73
2017-11-07T00:27:09.894Z,4.68
2017-11-07T00:29:38.996Z,4.58
2017-11-07T00:32:07.317Z,4.66
2017-11-07T00:34:35.638Z,4.65
2017-11-07T00:37:04.784Z,4.70
2017-11-07T00:39:33.102Z,4.71
2017-11-07T00:42:01.432Z,4.72
2017-11-07T00:44:29.763Z,4.75
2017-11-07T00:46:58.854Z,4.74
2017-11-07T00:49:27.945Z,4.77
2017-11-07T00:51:56.258Z,4.82
2017-11-07T00:54:24.571Z,4.80
2017-11-07T00:56:52.899Z,4.82
2017-11-07T00:59:21.973Z,4.80
2017-11-07T01:01:51.082Z,4.84
2017-11-07T01:04:20.171Z,4.83
2017-11-07T01:06:49.267Z,4.77
2017-11-07T01:09:18.351Z,4.78
2017-11-07T01:11:46.666Z,4.90
2017-11-07T01:14:14.995Z,4.78
2017-11-07T01:16:43.305Z,4.61
2017-11-07T01:19:12.371Z,4.70
2017-11-07T01:21:40.694Z,4.81
2017-11-07T01:24:09.011Z,4.97
2017-11-07T01:26:37.333Z,4.95
2017-11-07T01:29:06.646Z,4.80
2017-11-07T01:31:34.974Z,4.60
2017-11-07T01:34:03.306Z,4.61
2017-11-07T01:36:31.628Z,4.63
2017-11-07T01:38:59.963Z,4.79
2017-11-07T01:41:28.278Z,4.60
2017-11-07T01:43:56.596Z,4.41
2017-11-07T01:46:27.495Z,4.39
2017-11-07T01:48:55.836Z,4.43
2017-11-07T01:51:24.163Z,4.45
2017-11-07T01:53:52.493Z,4.47
2017-11-07T01:56:20.795Z,4.67
2017-11-07T01:58:49.111Z,4.56
2017-11-07T02:01:18.197Z,4.61
2017-11-07T02:03:46.509Z,4.66
2017-11-07T02:06:14.845Z,4.65
2017-11-07T02:08:43.172Z,4.73
2017-11-07T02:11:11.468Z,4.66
2017-11-07T02:13:39.799Z,4.55
2017-11-07T02:16:08.874Z,4.44
2017-11-07T02:18:37.195Z,4.42
2017-11-07T02:21:05.490Z,4.47
2017-11-07T02:23:33.802Z,4.61
2017-11-07T02:26:02.110Z,4.62
2017-11-07T02:28:31.188Z,4.62
2017-11-07T02:30:59.491Z,4.57
2017-11-07T02:33:27.842Z,4.54
2017-11-07T02:35:56.146Z,4.62
2017-11-07T02:38:24.453Z,4.62
2017-11-07T02:40:52.778Z,4.61
2017-11-07T02:43:21.850Z,4.56
2017-11-07T02:45:50.170Z,4.51
2017-11-07T02:48:18.470Z,4.67
2017-11-07T02:50:46.790Z,4.62
2017-11-07T02:53:15.121Z,4.73
2017-11-07T02:55:43.445Z,4.80
2017-11-07T02:58:11.781Z,4.71
2017-11-07T03:00:40.110Z,4.67
2017-11-07T03:03:08.423Z,4.65
2017-11-07T03:05:36.746Z,4.65
2017-11-07T03:08:05.046Z,4.66
2017-11-07T03:10:34.144Z,4.77
2017-11-07T03:13:03.207Z,4.84
2017-11-07T03:15:31.521Z,4.94
2017-11-07T03:18:00.617Z,4.95
2017-11-07T03:20:29.711Z,5.01
2017-11-07T03:22:58.810Z,4.97
2017-11-07T03:25:27.885Z,5.03
2017-11-07T03:27:56.191Z,5.09
2017-11-07T03:30:24.499Z,5.02
2017-11-07T03:32:52.808Z,4.98
2017-11-07T03:35:21.113Z,4.94
2017-11-07T03:37:50.184Z,4.95
2017-11-07T03:40:18.493Z,4.96
2017-11-07T03:42:47.556Z,5.00
2017-11-07T03:45:15.874Z,5.02
2017-11-07T03:47:44.200Z,5.09
2017-11-07T03:50:12.504Z,4.94
2017-11-07T03:52:41.573Z,4.89
2017-11-07T03:55:09.890Z,4.91
2017-11-07T03:57:38.946Z,4.90
2017-11-07T04:00:07.249Z,4.84
2017-11-07T04:02:36.337Z,4.90
2017-11-07T04:05:04.650Z,4.86
2017-11-07T04:07:32.951Z,4.74
2017-11-07T04:10:01.262Z,4.81
2017-11-07T04:12:29.568Z,4.71
2017-11-07T04:14:57.892Z,4.74
2017-11-07T04:17:26.199Z,4.65
2017-11-07T04:19:54.494Z,4.59
2017-11-07T04:22:23.577Z,4.59
2017-11-07T04:24:51.877Z,4.52
2017-11-07T04:27:20.190Z,4.62
2017-11-07T04:29:48.501Z,4.73
2017-11-07T04:32:16.809Z,4.83
2017-11-07T04:34:45.102Z,4.67
2017-11-07T04:37:13.411Z,4.79
2017-11-07T04:39:41.714Z,4.75
2017-11-07T04:42:10.790Z,4.70
2017-11-07T04:44:39.097Z,4.60
2017-11-07T04:47:08.174Z,4.58
2017-11-07T04:49:36.481Z,4.72
2017-11-07T04:52:04.793Z,4.72
2017-11-07T04:54:33.091Z,4.83
2017-11-07T04:57:01.399Z,4.90
2017-11-07T04:59:30.473Z,4.86
2017-11-07T05:01:58.786Z,4.79
2017-11-07T05:04:27.098Z,4.69
2017-11-07T05:06:55.419Z,4.74
2017-11-07T05:09:24.488Z,4.73
2017-11-07T05:11:52.794Z,4.71
2017-11-07T05:14:21.901Z,4.74
2017-11-07T05:16:50.214Z,4.80
2017-11-07T05:19:18.507Z,4.91
2017-11-07T05:21:46.837Z,4.86
2017-11-07T05:24:15.161Z,4.80
2017-11-07T05:26:43.465Z,4.73
2017-11-07T05:29:11.798Z,4.13
2017-11-07T05:31:40.117Z,4.71
2017-11-07T05:34:08.429Z,4.59
2017-11-07T05:36:36.754Z,4.55
2017-11-07T05:39:05.103Z,4.67
2017-11-07T05:41:33.423Z,4.61
2017-11-07T05:44:01.725Z,4.62
2017-11-07T05:46:30.803Z,4.59
2017-11-07T05:48:59.889Z,4.61
2017-11-07T05:51:28.204Z,4.55
2017-11-07T05:53:56.521Z,4.62
2017-11-07T05:56:24.825Z,4.53
2017-11-07T05:58:53.137Z,4.59
2017-11-07T06:01:21.437Z,4.63
2017-11-07T06:03:49.736Z,4.49
2017-11-07T06:06:18.033Z,4.57
2017-11-07T06:08:46.345Z,4.61
2017-11-07T06:11:14.661Z,4.60
2017-11-07T06:13:42.977Z,4.54
2017-11-07T06:16:12.057Z,4.51
2017-11-07T06:18:40.372Z,4.63
2017-11-07T06:21:08.693Z,4.71
2017-11-07T06:23:37.009Z,4.80
2017-11-07T06:26:06.087Z,4.72
2017-11-07T06:28:34.419Z,4.69
2017-11-07T06:31:02.717Z,4.75
2017-11-07T06:33:31.029Z,4.81
2017-11-07T06:36:00.097Z,4.80
2017-11-07T06:38:28.417Z,4.81
2017-11-07T06:40:57.477Z,4.83
2017-11-07T06:43:25.789Z,4.65
2017-11-07T06:45:54.863Z,4.79
2017-11-07T06:48:23.938Z,4.97
2017-11-07T06:50:52.338Z,4.96
2017-11-07T06:53:21.422Z,5.08
2017-11-07T06:55:49.725Z,5.04
2017-11-07T06:58:18.808Z,5.09
2017-11-07T07:00:47.950Z,5.20
2017-11-07T07:03:16.282Z,5.02
2017-11-07T07:05:45.366Z,4.97
2017-11-07T07:08:13.692Z,5.08
2017-11-07T07:10:42.009Z,4.86
2017-11-07T07:13:10.348Z,4.95
2017-11-07T07:15:38.650Z,4.96
2017-11-07T07:18:06.952Z,4.99
2017-11-07T07:20:35.265Z,5.04
2017-11-07T07:23:03.584Z,5.06
2017-11-07T07:25:31.900Z,4.95
2017-11-07T07:28:00.970Z,5.06
2017-11-07T07:30:29.302Z,5.14
2017-11-07T07:32:57.609Z,5.20
2017-11-07T07:35:26.041Z,5.16
2017-11-07T07:37:54.358Z,5.07
2017-11-07T07:40:22.675Z,5.08
2017-11-07T07:42:50.985Z,5.01
2017-11-07T07:45:19.302Z,5.71
2017-11-07T07:47:47.605Z,5.30
2017-11-07T07:50:15.919Z,5.30
2017-11-07T07:52:44.225Z,5.32
2017-11-07T07:55:12.569Z,5.23
2017-11-07T07:57:40.865Z,5.10
2017-11-07T08:00:09.196Z,5.09
2017-11-07T08:02:38.393Z,5.18
2017-11-07T08:05:06.725Z,5.20
2017-11-07T08:07:35.074Z,5.31
2017-11-07T08:10:03.410Z,5.38
2017-11-07T08:12:31.731Z,5.31
2017-11-07T08:15:00.060Z,5.35
2017-11-07T08:17:28.385Z,5.18
2017-11-07T08:19:56.698Z,5.24
2017-11-07T08:22:25.001Z,5.29
2017-11-07T08:24:53.314Z,5.34
2017-11-07T08:27:21.617Z,5.45
2017-11-07T08:29:49.936Z,5.52
2017-11-07T08:32:18.244Z,5.79
2017-11-07T08:34:46.560Z,5.75
2017-11-07T08:37:14.861Z,5.84
2017-11-07T08:39:43.178Z,5.88
2017-11-07T08:42:11.617Z,5.89
2017-11-07T08:44:40.109Z,5.95
2017-11-07T08:47:08.426Z,5.91
2017-11-07T08:49:36.744Z,5.76
2017-11-07T08:52:05.087Z,5.77
2017-11-07T08:54:33.430Z,5.91
2017-11-07T08:57:01.721Z,5.98
2017-11-07T08:59:30.797Z,5.73
2017-11-07T09:01:59.108Z,6.08
2017-11-07T09:04:27.417Z,5.93
2017-11-07T09:06:55.729Z,6.22
2017-11-07T09:09:24.041Z,6.39
2017-11-07T09:11:52.364Z,6.49
2017-11-07T09:14:20.675Z,6.47
2017-11-07T09:16:49.754Z,6.45
2017-11-07T09:19:18.052Z,6.31
2017-11-07T09:21:47.126Z,5.98
2017-11-07T09:24:15.434Z,5.84
2017-11-07T09:26:43.751Z,5.72
2017-11-07T09:29:12.072Z,5.69
2017-11-07T09:31:41.153Z,5.79
2017-11-07T09:34:09.461Z,5.80
2017-11-07T09:36:37.786Z,6.05
2017-11-07T09:39:06.130Z,6.17
2017-11-07T09:41:34.447Z,6.47
2017-11-07T09:44:02.778Z,6.71
2017-11-07T09:46:31.095Z,6.68
2017-11-07T09:48:59.407Z,6.69
2017-11-07T09:51:28.510Z,6.94
2017-11-07T09:53:57.595Z,7.16
2017-11-07T09:56:26.691Z,7.52
2017-11-07T09:58:55.800Z,7.52
2017-11-07T10:01:24.881Z,7.72
2017-11-07T10:03:53.961Z,7.56
2017-11-07T10:06:22.276Z,7.45
2017-11-07T10:08:50.585Z,7.34
2017-11-07T10:11:18.907Z,7.43
2017-11-07T10:13:47.981Z,7.54
2017-11-07T10:16:16.305Z,7.29
2017-11-07T10:18:44.611Z,7.53
2017-11-07T10:21:13.691Z,7.81
2017-11-07T10:23:41.990Z,7.89
2017-11-07T10:26:10.302Z,7.81
2017-11-07T10:28:38.617Z,7.82
2017-11-07T10:31:06.925Z,7.46
2017-11-07T10:33:35.232Z,7.55
2017-11-07T10:36:03.541Z,7.26
2017-11-07T10:38:31.851Z,7.42
2017-11-07T10:41:00.164Z,7.31
2017-11-07T10:43:28.473Z,7.49
2017-11-07T10:45:57.354Z,7.51
2017-11-07T10:48:26.429Z,7.60
2017-11-07T10:50:54.736Z,7.70
2017-11-07T10:53:23.081Z,7.74
2017-11-07T10:55:51.373Z,7.55
2017-11-07T10:58:20.442Z,7.63
2017-11-07T11:00:48.753Z,7.35
2017-11-07T11:03:17.087Z,7.61
2017-11-07T11:05:45.402Z,7.74
2017-11-07T11:08:14.497Z,7.80
2017-11-07T11:10:43.557Z,7.74
2017-11-07T11:13:11.883Z,7.95
2017-11-07T11:15:40.194Z,7.75
2017-11-07T11:18:08.501Z,7.98
2017-11-07T11:20:36.797Z,8.12
2017-11-07T11:23:05.873Z,7.93
2017-11-07T11:25:34.174Z,8.08
2017-11-07T11:28:03.270Z,8.19
2017-11-07T11:30:32.339Z,7.87
2017-11-07T11:33:00.682Z,8.05
2017-11-07T11:35:28.993Z,8.07
2017-11-07T11:37:57.304Z,7.95
2017-11-07T11:40:25.617Z,8.16
2017-11-07T11:42:53.929Z,8.09
2017-11-07T11:45:22.233Z,8.13
2017-11-07T11:47:51.322Z,8.02
2017-11-07T11:50:20.389Z,8.03
2017-11-07T11:52:48.698Z,8.27
2017-11-07T11:55:17.054Z,8.08
2017-11-07T11:57:45.393Z,7.93
2017-11-07T12:00:13.706Z,7.93
2017-11-07T12:02:42.017Z,7.82
2017-11-07T12:05:10.313Z,7.89
2017-11-07T12:07:38.641Z,8.09
2017-11-07T12:10:07.731Z,8.25
2017-11-07T12:15:09.575Z,8.20
2017-11-07T12:17:37.881Z,8.53
2017-11-07T12:20:06.225Z,8.32
2017-11-07T12:22:34.534Z,8.39
2017-11-07T12:25:02.833Z,8.36
2017-11-07T12:27:31.909Z,8.64
2017-11-07T12:30:00.213Z,8.45
2017-11-07T12:32:29.287Z,8.60
2017-11-07T12:34:57.582Z,8.54
2017-11-07T12:37:26.660Z,8.60
2017-11-07T12:39:55.738Z,8.40
2017-11-07T12:42:24.046Z,8.43
2017-11-07T12:44:53.108Z,8.31
2017-11-07T12:47:21.413Z,8.25
2017-11-07T12:49:51.067Z,8.28
2017-11-07T12:52:19.377Z,8.19
2017-11-07T12:54:47.691Z,8.05
2017-11-07T12:57:16.804Z,8.29
2017-11-07T12:59:45.126Z,8.22
2017-11-07T13:02:13.437Z,8.17
2017-11-07T13:04:42.546Z,8.26
2017-11-07T13:07:10.854Z,8.35
2017-11-07T13:09:39.165Z,8.52
2017-11-07T13:12:08.278Z,8.44
2017-11-07T13:14:37.357Z,8.56
2017-11-07T13:17:05.662Z,8.65
2017-11-07T13:19:33.973Z,8.48
2017-11-07T13:22:02.276Z,8.48
2017-11-07T13:24:30.586Z,8.39
2017-11-07T13:26:58.900Z,8.53
2017-11-07T13:29:27.202Z,8.54
2017-11-07T13:31:55.501Z,8.42
2017-11-07T13:34:24.733Z,8.39
2017-11-07T13:36:53.049Z,8.26
2017-11-07T13:39:21.371Z,8.22
2017-11-07T13:41:50.437Z,8.42
2017-11-07T13:44:18.746Z,8.37
2017-11-07T13:46:47.825Z,8.30
2017-11-07T13:49:16.911Z,8.19
2017-11-07T13:51:45.209Z,8.09
2017-11-07T13:54:14.285Z,8.07
2017-11-07T13:56:43.009Z,8.07
2017-11-07T13:59:11.321Z,8.03
2017-11-07T14:01:39.617Z,8.08
2017-11-07T14:04:07.939Z,8.07
2017-11-07T14:06:36.253Z,8.25
2017-11-07T14:09:04.595Z,8.24
2017-11-07T14:11:32.906Z,8.20
2017-11-07T14:14:01.231Z,8.33
2017-11-07T14:16:30.298Z,8.37
2017-11-07T14:18:58.621Z,8.41
2017-11-07T14:21:26.937Z,8.48
2017-11-07T14:23:55.245Z,8.41
2017-11-07T14:26:23.537Z,8.35
2017-11-07T14:28:51.861Z,8.36
2017-11-07T14:31:20.187Z,8.29
2017-11-07T14:33:49.277Z,8.28
2017-11-07T14:36:18.345Z,8.24
2017-11-07T14:38:47.389Z,8.25
2017-11-07T14:41:15.729Z,8.22
2017-11-07T14:43:44.074Z,8.20
2017-11-07T14:46:12.378Z,8.21
2017-11-07T14:48:40.714Z,8.07
2017-11-07T14:51:09.097Z,8.14
2017-11-07T14:53:37.405Z,8.10
2017-11-07T14:56:05.717Z,8.12
2017-11-07T14:58:34.057Z,8.16
2017-11-07T15:01:02.355Z,8.05
2017-11-07T15:03:31.464Z,8.03
2017-11-07T15:06:00.541Z,8.06
2017-11-07T15:08:28.868Z,8.05
2017-11-07T15:10:57.173Z,7.94
2017-11-07T15:13:25.505Z,7.96
2017-11-07T15:15:53.817Z,7.99
2017-11-07T15:18:22.124Z,7.98
2017-11-07T15:20:50.446Z,7.95
2017-11-07T15:23:18.745Z,7.87
2017-11-07T15:25:47.059Z,7.82
2017-11-07T15:28:15.388Z,7.74
2017-11-07T15:30:43.707Z,7.70
2017-11-07T15:33:11.997Z,7.75
2017-11-07T15:35:40.317Z,7.71
2017-11-07T15:38:08.621Z,7.74
2017-11-07T15:40:36.936Z,7.69
2017-11-07T15:43:05.244Z,7.68
2017-11-07T15:45:33.549Z,7.62
2017-11-07T15:48:01.846Z,7.58
2017-11-07T15:50:30.158Z,7.56
2017-11-07T15:52:59.225Z,7.49
2017-11-07T15:55:27.545Z,7.52
2017-11-07T15:57:55.864Z,7.55
2017-11-07T16:00:25.307Z,7.56
2017-11-07T16:02:53.641Z,7.54
2017-11-07T16:05:21.997Z,7.58
2017-11-07T16:07:50.293Z,7.61
2017-11-07T16:10:18.596Z,7.59
2017-11-07T16:12:47.669Z,7.62
2017-11-07T16:15:15.973Z,7.56
2017-11-07T16:17:44.269Z,7.54
2017-11-07T16:20:13.393Z,7.60
2017-11-07T16:22:41.690Z,7.60
2017-11-07T16:25:09.993Z,7.63
2017-11-07T16:27:38.290Z,7.62
2017-11-07T16:30:07.381Z,7.65
2017-11-07T16:32:36.485Z,7.58
2017-11-07T16:35:05.557Z,7.64
2017-11-07T16:37:33.852Z,7.65
2017-11-07T16:40:02.929Z,7.62
2017-11-07T16:42:31.230Z,7.63
2017-11-07T16:44:59.545Z,7.52
2017-11-07T16:47:27.849Z,7.59
2017-11-07T16:49:56.173Z,7.64
2017-11-07T16:52:24.481Z,7.69
2017-11-07T16:54:52.793Z,7.64
2017-11-07T16:57:21.116Z,7.76
2017-11-07T16:59:49.417Z,7.65
2017-11-07T17:02:17.761Z,7.74
2017-11-07T17:04:46.085Z,7.69
2017-11-07T17:07:14.629Z,7.68
2017-11-07T17:09:42.953Z,7.65
2017-11-07T17:12:11.269Z,7.64
2017-11-07T17:14:40.341Z,7.69
2017-11-07T17:17:09.405Z,7.67
2017-11-07T17:19:37.742Z,7.68
2017-11-07T17:22:06.041Z,7.76
2017-11-07T17:24:34.416Z,7.74
2017-11-07T17:27:02.730Z,7.72
2017-11-07T17:29:31.045Z,7.77
2017-11-07T17:31:59.362Z,7.75
2017-11-07T17:34:27.677Z,7.85
2017-11-07T17:36:56.008Z,7.80
2017-11-07T17:39:24.334Z,7.76
2017-11-07T17:41:52.660Z,7.69
2017-11-07T17:44:20.977Z,7.73
2017-11-07T17:46:50.108Z,7.75
2017-11-07T17:49:18.414Z,7.79
2017-11-07T17:51:46.733Z,7.82
2017-11-07T17:54:15.048Z,7.83
2017-11-07T17:56:43.384Z,7.79
2017-11-07T17:59:11.702Z,7.83
2017-11-07T18:01:40.025Z,7.82
2017-11-07T18:04:08.370Z,7.83
2017-11-07T18:06:36.686Z,7.75
2017-11-07T18:09:05.026Z,7.88
2017-11-07T18:11:33.367Z,7.88
2017-11-07T18:14:02.438Z,7.83
2017-11-07T18:16:30.762Z,7.90
2017-11-07T18:18:59.066Z,7.94
2017-11-07T18:21:27.421Z,7.91
2017-11-07T18:23:55.724Z,7.87
2017-11-07T18:26:24.069Z,7.89
2017-11-07T18:28:52.389Z,7.93
2017-11-07T18:31:20.714Z,7.92
2017-11-07T18:33:49.777Z,7.91
2017-11-07T18:36:18.103Z,7.93
2017-11-07T18:38:46.417Z,7.97
2017-11-07T18:41:14.773Z,7.98
2017-11-07T18:43:43.109Z,7.97
2017-11-07T18:46:12.189Z,7.92
2017-11-07T18:48:40.526Z,7.91
2017-11-07T18:51:09.199Z,7.98
2017-11-07T18:53:37.561Z,8.02
2017-11-07T18:56:05.881Z,8.00
2017-11-07T18:58:34.244Z,8.06
2017-11-07T19:01:02.557Z,7.99
2017-11-07T19:03:30.873Z,7.95
2017-11-07T19:05:59.233Z,8.03
2017-11-07T19:08:27.561Z,8.00
2017-11-07T19:10:55.878Z,7.98
2017-11-07T19:13:24.199Z,8.01
2017-11-07T19:15:52.526Z,8.05
2017-11-07T19:18:20.933Z,8.04
2017-11-07T19:20:50.015Z,8.12
2017-11-07T19:23:18.329Z,8.07
2017-11-07T19:25:46.638Z,8.05
2017-11-07T19:28:14.966Z,8.09
2017-11-07T19:30:43.279Z,8.10
2017-11-07T19:33:11.625Z,8.09
2017-11-07T19:35:39.935Z,8.08
2017-11-07T19:38:08.303Z,8.15
2017-11-07T19:40:36.602Z,8.14
2017-11-07T19:43:04.929Z,8.15
2017-11-07T19:45:34.021Z,8.21
2017-11-07T19:48:03.103Z,8.04
2017-11-07T19:50:32.183Z,8.14
2017-11-07T19:53:00.501Z,8.10
2017-11-07T19:55:28.806Z,8.02
2017-11-07T19:57:57.138Z,8.01
2017-11-07T20:00:26.225Z,8.04
2017-11-07T20:02:54.565Z,7.93
2017-11-07T20:05:22.887Z,8.00
2017-11-07T20:07:51.982Z,7.99
2017-11-07T20:10:21.060Z,7.96
2017-11-07T20:12:49.377Z,7.96
2017-11-07T20:15:17.673Z,8.03
2017-11-07T20:17:46.002Z,8.04
2017-11-07T20:20:15.104Z,7.94
2017-11-07T20:22:44.199Z,7.96
2017-11-07T20:25:13.292Z,7.93
2017-11-07T20:27:41.601Z,7.91
2017-11-07T20:30:09.970Z,7.94
2017-11-07T20:32:38.294Z,7.97
2017-11-07T20:35:06.634Z,7.99
2017-11-07T20:37:34.989Z,8.02
2017-11-07T20:40:04.099Z,8.09
2017-11-07T20:42:32.436Z,8.10
2017-11-07T20:45:00.784Z,8.06
2017-11-07T20:47:29.109Z,8.10
2017-11-07T20:49:58.203Z,8.14
2017-11-07T20:52:27.298Z,8.15
2017-11-07T20:54:55.617Z,8.10
2017-11-07T20:57:23.927Z,8.10
2017-11-07T20:59:52.253Z,8.08
2017-11-07T21:02:20.573Z,8.07
2017-11-07T21:04:48.905Z,8.08
2017-11-07T21:07:17.268Z,8.00
2017-11-07T21:09:46.356Z,8.04
2017-11-07T21:12:14.670Z,8.09
2017-11-07T21:14:43.853Z,8.09
2017-11-07T21:17:12.174Z,8.04
2017-11-07T21:19:40.506Z,8.12
2017-11-07T21:22:08.810Z,8.09
2017-11-07T21:24:37.134Z,8.07
2017-11-07T21:27:05.439Z,8.02
2017-11-07T21:29:34.526Z,8.05
2017-11-07T21:32:03.605Z,7.99
2017-11-07T21:34:31.917Z,8.08
2017-11-07T21:37:00.251Z,8.04
2017-11-07T21:39:28.553Z,7.95
2017-11-07T21:41:57.646Z,7.95
2017-11-07T21:44:26.727Z,7.96
2017-11-07T21:46:55.048Z,7.93
2017-11-07T21:49:23.379Z,7.95
2017-11-07T21:51:51.713Z,7.87
2017-11-07T21:54:20.038Z,7.98
2017-11-07T21:56:48.362Z,8.00
2017-11-07T21:59:16.688Z,7.95
2017-11-07T22:01:45.023Z,7.96
2017-11-07T22:04:13.349Z,7.97
2017-11-07T22:06:41.657Z,7.93
2017-11-07T22:09:12.314Z,7.94
2017-11-07T22:11:40.641Z,7.94
2017-11-07T22:14:08.942Z,7.92
2017-11-07T22:16:42.882Z,7.90
2017-11-07T22:19:13.094Z,7.85
2017-11-07T22:21:41.411Z,7.89
2017-11-07T22:24:09.717Z,7.88
2017-11-07T22:26:38.805Z,7.82
2017-11-07T22:29:07.902Z,7.87
2017-11-07T22:31:36.981Z,7.87
2017-11-07T22:34:05.290Z,7.79
2017-11-07T22:36:33.616Z,7.85
2017-11-07T22:39:01.937Z,7.81
2017-11-07T22:41:31.018Z,7.83
2017-11-07T22:44:00.096Z,7.79
2017-11-07T22:46:28.405Z,7.79
2017-11-07T22:48:56.701Z,7.85
2017-11-07T22:51:25.049Z,7.88
2017-11-07T22:53:54.125Z,7.82
2017-11-07T22:56:22.443Z,7.84
2017-11-07T22:58:50.767Z,7.79
2017-11-07T23:01:19.086Z,7.78
2017-11-07T23:03:48.149Z,7.83
2017-11-07T23:06:17.961Z,7.81
2017-11-07T23:08:46.281Z,7.86
2017-11-07T23:11:14.593Z,7.86
2017-11-07T23:13:42.910Z,7.88
2017-11-07T23:16:11.221Z,7.91
2017-11-07T23:18:39.545Z,7.89
2017-11-07T23:21:07.873Z,7.89
2017-11-07T23:23:36.200Z,7.89
2017-11-07T23:26:04.516Z,7.91
2017-11-07T23:28:33.588Z,7.86
2017-11-07T23:31:01.921Z,7.91
2017-11-07T23:33:30.222Z,7.92
2017-11-07T23:35:58.540Z,7.92
2017-11-07T23:38:27.616Z,7.84
2017-11-07T23:40:55.946Z,7.86
2017-11-07T23:43:24.268Z,7.78
2017-11-07T23:45:52.601Z,7.77
2017-11-07T23:48:20.929Z,7.79
2017-11-07T23:50:49.247Z,7.77
2017-11-07T23:53:17.581Z,7.87
2017-11-07T23:55:45.899Z,7.84
2017-11-07T23:58:14.216Z,7.79
